sensor_id;sensor_type;location;lat;lon;timestamp;P1;durP1;ratioP1;P2;durP2;ratioP2
15673;SDS011;7937;48.090;16.212;2023-03-14T00:01:43;5.27;;;2.63;;
15673;SDS011;7937;48.090;16.212;2023-03-14T00:04:46;3.23;;;2.90;;
15673;SDS011;7937;48.090;16.212;2023-03-14T00:07:48;6.03;;;2.70;;
15673;SDS011;7937;48.090;16.212;2023-03-14T00:10:51;3.67;;;2.57;;
15673;SDS011;7937;48.090;16.212;2023-03-14T00:13:53;3.40;;;2.67;;
15673;SDS011;7937;48.090;16.212;2023-03-14T00:16:55;5.33;;;2.60;;
15673;SDS011;7937;48.090;16.212;2023-03-14T00:19:57;4.27;;;2.43;;
15673;SDS011;7937;48.090;16.212;2023-03-14T00:23:05;4.03;;;2.57;;
15673;SDS011;7937;48.090;16.212;2023-03-14T00:26:08;3.10;;;2.23;;
15673;SDS011;7937;48.090;16.212;2023-03-14T00:29:15;4.10;;;2.70;;
15673;SDS011;7937;48.090;16.212;2023-03-14T00:32:19;6.13;;;2.90;;
15673;SDS011;7937;48.090;16.212;2023-03-14T00:35:21;3.67;;;2.40;;
15673;SDS011;7937;48.090;16.212;2023-03-14T00:38:24;4.73;;;2.73;;
15673;SDS011;7937;48.090;16.212;2023-03-14T00:41:26;5.53;;;3.43;;
15673;SDS011;7937;48.090;16.212;2023-03-14T00:44:28;2.50;;;2.20;;
15673;SDS011;7937;48.090;16.212;2023-03-14T00:47:31;3.77;;;2.60;;
15673;SDS011;7937;48.090;16.212;2023-03-14T00:50:33;3.23;;;2.53;;
15673;SDS011;7937;48.090;16.212;2023-03-14T00:53:35;4.03;;;2.70;;
15673;SDS011;7937;48.090;16.212;2023-03-14T00:56:39;3.40;;;2.20;;
15673;SDS011;7937;48.090;16.212;2023-03-14T00:59:41;4.40;;;2.60;;
15673;SDS011;7937;48.090;16.212;2023-03-14T01:02:43;4.90;;;2.70;;
15673;SDS011;7937;48.090;16.212;2023-03-14T01:05:45;3.30;;;2.13;;
15673;SDS011;7937;48.090;16.212;2023-03-14T01:08:49;2.57;;;2.03;;
15673;SDS011;7937;48.090;16.212;2023-03-14T01:11:51;4.03;;;2.50;;
15673;SDS011;7937;48.090;16.212;2023-03-14T01:14:53;4.43;;;2.87;;
15673;SDS011;7937;48.090;16.212;2023-03-14T01:17:55;4.03;;;2.20;;
15673;SDS011;7937;48.090;16.212;2023-03-14T01:20:58;3.17;;;2.10;;
15673;SDS011;7937;48.090;16.212;2023-03-14T01:24:01;3.70;;;2.50;;
15673;SDS011;7937;48.090;16.212;2023-03-14T01:27:05;4.30;;;2.47;;
15673;SDS011;7937;48.090;16.212;2023-03-14T01:30:07;2.57;;;2.10;;
15673;SDS011;7937;48.090;16.212;2023-03-14T01:33:11;4.70;;;2.60;;
15673;SDS011;7937;48.090;16.212;2023-03-14T01:36:18;4.20;;;2.43;;
15673;SDS011;7937;48.090;16.212;2023-03-14T01:39:20;5.27;;;2.60;;
15673;SDS011;7937;48.090;16.212;2023-03-14T01:42:22;3.53;;;2.20;;
15673;SDS011;7937;48.090;16.212;2023-03-14T01:52:28;2.80;;;2.47;;
15673;SDS011;7937;48.090;16.212;2023-03-14T01:55:35;3.33;;;2.33;;
15673;SDS011;7937;48.090;16.212;2023-03-14T01:58:38;4.13;;;1.90;;
15673;SDS011;7937;48.090;16.212;2023-03-14T02:01:44;2.67;;;1.80;;
15673;SDS011;7937;48.090;16.212;2023-03-14T02:04:49;3.77;;;2.20;;
15673;SDS011;7937;48.090;16.212;2023-03-14T02:07:55;3.77;;;1.97;;
15673;SDS011;7937;48.090;16.212;2023-03-14T02:11:08;3.37;;;2.20;;
15673;SDS011;7937;48.090;16.212;2023-03-14T02:14:38;5.27;;;2.20;;
15673;SDS011;7937;48.090;16.212;2023-03-14T02:18:04;2.60;;;1.90;;
15673;SDS011;7937;48.090;16.212;2023-03-14T02:24:50;2.57;;;1.97;;
15673;SDS011;7937;48.090;16.212;2023-03-14T02:28:00;2.33;;;1.70;;
15673;SDS011;7937;48.090;16.212;2023-03-14T02:31:03;2.77;;;2.33;;
15673;SDS011;7937;48.090;16.212;2023-03-14T02:34:07;3.87;;;2.03;;
15673;SDS011;7937;48.090;16.212;2023-03-14T02:37:10;3.13;;;1.80;;
15673;SDS011;7937;48.090;16.212;2023-03-14T02:40:15;4.60;;;2.00;;
15673;SDS011;7937;48.090;16.212;2023-03-14T02:43:18;3.10;;;2.00;;
15673;SDS011;7937;48.090;16.212;2023-03-14T02:46:26;4.27;;;1.90;;
15673;SDS011;7937;48.090;16.212;2023-03-14T02:49:29;4.50;;;1.93;;
15673;SDS011;7937;48.090;16.212;2023-03-14T02:52:35;2.97;;;1.80;;
15673;SDS011;7937;48.090;16.212;2023-03-14T02:55:37;3.50;;;2.13;;
15673;SDS011;7937;48.090;16.212;2023-03-14T02:58:45;3.30;;;2.00;;
15673;SDS011;7937;48.090;16.212;2023-03-14T03:02:16;2.13;;;1.90;;
15673;SDS011;7937;48.090;16.212;2023-03-14T03:05:18;3.07;;;2.07;;
15673;SDS011;7937;48.090;16.212;2023-03-14T03:08:20;2.70;;;2.10;;
15673;SDS011;7937;48.090;16.212;2023-03-14T03:11:24;9.77;;;6.67;;
15673;SDS011;7937;48.090;16.212;2023-03-14T03:14:26;7.57;;;4.90;;
15673;SDS011;7937;48.090;16.212;2023-03-14T03:17:32;7.33;;;4.90;;
15673;SDS011;7937;48.090;16.212;2023-03-14T03:20:34;5.03;;;2.77;;
15673;SDS011;7937;48.090;16.212;2023-03-14T03:23:37;3.20;;;2.23;;
15673;SDS011;7937;48.090;16.212;2023-03-14T03:26:39;3.57;;;1.80;;
15673;SDS011;7937;48.090;16.212;2023-03-14T03:29:44;2.77;;;1.97;;
15673;SDS011;7937;48.090;16.212;2023-03-14T03:32:46;2.50;;;1.97;;
15673;SDS011;7937;48.090;16.212;2023-03-14T03:35:49;4.00;;;2.17;;
15673;SDS011;7937;48.090;16.212;2023-03-14T03:39:01;3.17;;;1.93;;
15673;SDS011;7937;48.090;16.212;2023-03-14T03:42:05;2.63;;;1.90;;
15673;SDS011;7937;48.090;16.212;2023-03-14T03:45:07;3.43;;;2.00;;
15673;SDS011;7937;48.090;16.212;2023-03-14T03:48:15;2.87;;;1.93;;
15673;SDS011;7937;48.090;16.212;2023-03-14T03:51:17;3.70;;;2.20;;
15673;SDS011;7937;48.090;16.212;2023-03-14T03:54:20;2.47;;;2.13;;
15673;SDS011;7937;48.090;16.212;2023-03-14T03:57:22;3.40;;;2.27;;
15673;SDS011;7937;48.090;16.212;2023-03-14T04:00:24;4.00;;;2.43;;
15673;SDS011;7937;48.090;16.212;2023-03-14T04:03:26;2.83;;;2.40;;
15673;SDS011;7937;48.090;16.212;2023-03-14T04:06:30;3.93;;;1.93;;
15673;SDS011;7937;48.090;16.212;2023-03-14T04:09:34;3.33;;;2.30;;
15673;SDS011;7937;48.090;16.212;2023-03-14T04:12:52;4.43;;;2.17;;
15673;SDS011;7937;48.090;16.212;2023-03-14T04:15:58;3.10;;;2.40;;
15673;SDS011;7937;48.090;16.212;2023-03-14T04:19:02;3.30;;;2.30;;
15673;SDS011;7937;48.090;16.212;2023-03-14T04:22:05;4.97;;;2.90;;
15673;SDS011;7937;48.090;16.212;2023-03-14T04:25:16;4.23;;;2.67;;
15673;SDS011;7937;48.090;16.212;2023-03-14T04:28:23;3.63;;;2.07;;
15673;SDS011;7937;48.090;16.212;2023-03-14T04:31:25;3.77;;;2.10;;
15673;SDS011;7937;48.090;16.212;2023-03-14T04:34:27;2.93;;;2.30;;
15673;SDS011;7937;48.090;16.212;2023-03-14T04:37:31;3.90;;;2.73;;
15673;SDS011;7937;48.090;16.212;2023-03-14T04:40:33;4.07;;;2.70;;
15673;SDS011;7937;48.090;16.212;2023-03-14T04:43:39;4.53;;;2.67;;
15673;SDS011;7937;48.090;16.212;2023-03-14T04:46:44;2.90;;;2.13;;
15673;SDS011;7937;48.090;16.212;2023-03-14T04:49:47;3.73;;;2.10;;
15673;SDS011;7937;48.090;16.212;2023-03-14T04:52:50;3.07;;;2.10;;
15673;SDS011;7937;48.090;16.212;2023-03-14T04:55:53;5.13;;;2.20;;
15673;SDS011;7937;48.090;16.212;2023-03-14T04:59:00;3.90;;;2.80;;
15673;SDS011;7937;48.090;16.212;2023-03-14T05:02:03;4.17;;;2.70;;
15673;SDS011;7937;48.090;16.212;2023-03-14T05:05:25;2.83;;;2.03;;
15673;SDS011;7937;48.090;16.212;2023-03-14T05:08:42;3.03;;;2.13;;
15673;SDS011;7937;48.090;16.212;2023-03-14T05:12:03;4.50;;;2.57;;
15673;SDS011;7937;48.090;16.212;2023-03-14T05:15:25;3.17;;;2.53;;
15673;SDS011;7937;48.090;16.212;2023-03-14T05:18:53;3.33;;;2.27;;
15673;SDS011;7937;48.090;16.212;2023-03-14T05:22:04;5.13;;;2.33;;
15673;SDS011;7937;48.090;16.212;2023-03-14T05:25:25;4.53;;;2.10;;
15673;SDS011;7937;48.090;16.212;2023-03-14T05:28:42;2.40;;;2.03;;
15673;SDS011;7937;48.090;16.212;2023-03-14T05:31:52;2.77;;;2.10;;
15673;SDS011;7937;48.090;16.212;2023-03-14T05:35:03;2.90;;;2.13;;
15673;SDS011;7937;48.090;16.212;2023-03-14T05:38:22;3.00;;;2.60;;
15673;SDS011;7937;48.090;16.212;2023-03-14T05:41:36;3.03;;;1.90;;
15673;SDS011;7937;48.090;16.212;2023-03-14T05:44:56;3.13;;;2.13;;
15673;SDS011;7937;48.090;16.212;2023-03-14T05:48:25;2.80;;;2.20;;
15673;SDS011;7937;48.090;16.212;2023-03-14T05:51:36;3.23;;;2.47;;
15673;SDS011;7937;48.090;16.212;2023-03-14T05:55:07;2.83;;;2.10;;
15673;SDS011;7937;48.090;16.212;2023-03-14T05:58:09;2.43;;;2.10;;
15673;SDS011;7937;48.090;16.212;2023-03-14T06:01:43;3.10;;;2.43;;
15673;SDS011;7937;48.090;16.212;2023-03-14T06:04:52;2.57;;;1.90;;
15673;SDS011;7937;48.090;16.212;2023-03-14T06:07:54;3.87;;;2.10;;
15673;SDS011;7937;48.090;16.212;2023-03-14T06:10:57;3.17;;;2.13;;
15673;SDS011;7937;48.090;16.212;2023-03-14T06:14:04;3.30;;;1.93;;
15673;SDS011;7937;48.090;16.212;2023-03-14T06:17:06;2.93;;;2.03;;
15673;SDS011;7937;48.090;16.212;2023-03-14T06:20:15;4.37;;;1.70;;
15673;SDS011;7937;48.090;16.212;2023-03-14T06:23:18;2.10;;;1.90;;
15673;SDS011;7937;48.090;16.212;2023-03-14T06:26:21;3.20;;;1.90;;
15673;SDS011;7937;48.090;16.212;2023-03-14T06:29:24;1.87;;;1.50;;
15673;SDS011;7937;48.090;16.212;2023-03-14T06:32:27;2.93;;;1.73;;
15673;SDS011;7937;48.090;16.212;2023-03-14T06:35:33;2.50;;;1.70;;
15673;SDS011;7937;48.090;16.212;2023-03-14T06:38:36;2.10;;;1.90;;
15673;SDS011;7937;48.090;16.212;2023-03-14T06:41:39;4.03;;;2.20;;
15673;SDS011;7937;48.090;16.212;2023-03-14T06:44:43;7.20;;;4.70;;
15673;SDS011;7937;48.090;16.212;2023-03-14T06:47:45;3.47;;;2.80;;
15673;SDS011;7937;48.090;16.212;2023-03-14T06:50:48;3.67;;;2.03;;
15673;SDS011;7937;48.090;16.212;2023-03-14T06:53:51;2.13;;;1.93;;
15673;SDS011;7937;48.090;16.212;2023-03-14T06:56:56;3.10;;;2.10;;
15673;SDS011;7937;48.090;16.212;2023-03-14T06:59:58;2.40;;;1.80;;
15673;SDS011;7937;48.090;16.212;2023-03-14T07:03:01;1.67;;;1.50;;
15673;SDS011;7937;48.090;16.212;2023-03-14T07:06:06;2.07;;;1.70;;
15673;SDS011;7937;48.090;16.212;2023-03-14T07:09:09;3.63;;;1.80;;
15673;SDS011;7937;48.090;16.212;2023-03-14T07:12:16;2.63;;;0.97;;
15673;SDS011;7937;48.090;16.212;2023-03-14T07:15:18;1.37;;;0.80;;
15673;SDS011;7937;48.090;16.212;2023-03-14T07:18:25;0.60;;;0.60;;
15673;SDS011;7937;48.090;16.212;2023-03-14T07:21:29;0.60;;;0.60;;
15673;SDS011;7937;48.090;16.212;2023-03-14T07:24:34;0.60;;;0.60;;
15673;SDS011;7937;48.090;16.212;2023-03-14T07:27:36;0.40;;;0.40;;
15673;SDS011;7937;48.090;16.212;2023-03-14T07:30:38;0.37;;;0.37;;
15673;SDS011;7937;48.090;16.212;2023-03-14T07:33:47;0.33;;;0.33;;
15673;SDS011;7937;48.090;16.212;2023-03-14T07:36:51;0.40;;;0.40;;
15673;SDS011;7937;48.090;16.212;2023-03-14T07:39:53;0.30;;;0.30;;
15673;SDS011;7937;48.090;16.212;2023-03-14T07:42:59;0.10;;;0.10;;
15673;SDS011;7937;48.090;16.212;2023-03-14T07:46:11;0.37;;;0.37;;
15673;SDS011;7937;48.090;16.212;2023-03-14T07:49:13;0.20;;;0.20;;
15673;SDS011;7937;48.090;16.212;2023-03-14T07:52:15;0.30;;;0.30;;
15673;SDS011;7937;48.090;16.212;2023-03-14T07:55:17;0.50;;;0.30;;
15673;SDS011;7937;48.090;16.212;2023-03-14T07:58:20;0.23;;;0.23;;
15673;SDS011;7937;48.090;16.212;2023-03-14T08:01:25;0.20;;;0.20;;
15673;SDS011;7937;48.090;16.212;2023-03-14T08:04:27;0.30;;;0.30;;
15673;SDS011;7937;48.090;16.212;2023-03-14T08:07:30;0.30;;;0.30;;
15673;SDS011;7937;48.090;16.212;2023-03-14T08:10:32;0.40;;;0.40;;
15673;SDS011;7937;48.090;16.212;2023-03-14T08:13:35;1.00;;;0.30;;
15673;SDS011;7937;48.090;16.212;2023-03-14T08:16:38;0.20;;;0.20;;
15673;SDS011;7937;48.090;16.212;2023-03-14T08:19:41;0.47;;;0.20;;
15673;SDS011;7937;48.090;16.212;2023-03-14T08:22:43;0.20;;;0.20;;
15673;SDS011;7937;48.090;16.212;2023-03-14T08:25:47;1.10;;;0.27;;
15673;SDS011;7937;48.090;16.212;2023-03-14T08:28:51;0.30;;;0.30;;
15673;SDS011;7937;48.090;16.212;2023-03-14T08:31:53;0.30;;;0.30;;
15673;SDS011;7937;48.090;16.212;2023-03-14T08:34:56;0.30;;;0.30;;
15673;SDS011;7937;48.090;16.212;2023-03-14T08:37:58;0.37;;;0.20;;
15673;SDS011;7937;48.090;16.212;2023-03-14T08:41:01;1.23;;;0.30;;
15673;SDS011;7937;48.090;16.212;2023-03-14T08:44:04;0.10;;;0.10;;
15673;SDS011;7937;48.090;16.212;2023-03-14T08:47:06;0.27;;;0.20;;
15673;SDS011;7937;48.090;16.212;2023-03-14T08:50:08;0.20;;;0.20;;
15673;SDS011;7937;48.090;16.212;2023-03-14T08:53:16;0.67;;;0.30;;
15673;SDS011;7937;48.090;16.212;2023-03-14T08:56:19;0.20;;;0.20;;
15673;SDS011;7937;48.090;16.212;2023-03-14T08:59:21;0.47;;;0.30;;
15673;SDS011;7937;48.090;16.212;2023-03-14T09:02:24;0.20;;;0.20;;
15673;SDS011;7937;48.090;16.212;2023-03-14T09:05:27;0.13;;;0.13;;
15673;SDS011;7937;48.090;16.212;2023-03-14T09:08:29;0.20;;;0.20;;
15673;SDS011;7937;48.090;16.212;2023-03-14T09:11:31;0.20;;;0.20;;
15673;SDS011;7937;48.090;16.212;2023-03-14T09:14:34;0.40;;;0.30;;
15673;SDS011;7937;48.090;16.212;2023-03-14T09:17:37;0.37;;;0.20;;
15673;SDS011;7937;48.090;16.212;2023-03-14T09:20:39;0.20;;;0.20;;
15673;SDS011;7937;48.090;16.212;2023-03-14T09:23:41;0.20;;;0.20;;
15673;SDS011;7937;48.090;16.212;2023-03-14T09:26:47;0.20;;;0.20;;
15673;SDS011;7937;48.090;16.212;2023-03-14T09:29:49;0.30;;;0.30;;
15673;SDS011;7937;48.090;16.212;2023-03-14T09:32:51;0.20;;;0.20;;
15673;SDS011;7937;48.090;16.212;2023-03-14T09:35:53;1.50;;;0.30;;
15673;SDS011;7937;48.090;16.212;2023-03-14T09:38:55;0.37;;;0.30;;
15673;SDS011;7937;48.090;16.212;2023-03-14T09:41:57;0.10;;;0.10;;
15673;SDS011;7937;48.090;16.212;2023-03-14T09:45:05;0.20;;;0.20;;
15673;SDS011;7937;48.090;16.212;2023-03-14T09:48:16;0.10;;;0.10;;
15673;SDS011;7937;48.090;16.212;2023-03-14T09:51:21;0.20;;;0.20;;
15673;SDS011;7937;48.090;16.212;2023-03-14T09:57:42;0.67;;;0.30;;
15673;SDS011;7937;48.090;16.212;2023-03-14T10:00:46;0.30;;;0.30;;
15673;SDS011;7937;48.090;16.212;2023-03-14T10:03:49;0.20;;;0.20;;
15673;SDS011;7937;48.090;16.212;2023-03-14T10:06:55;0.27;;;0.27;;
15673;SDS011;7937;48.090;16.212;2023-03-14T10:09:58;0.40;;;0.37;;
15673;SDS011;7937;48.090;16.212;2023-03-14T10:13:05;0.20;;;0.20;;
15673;SDS011;7937;48.090;16.212;2023-03-14T10:16:28;0.30;;;0.30;;
15673;SDS011;7937;48.090;16.212;2023-03-14T10:19:32;0.20;;;0.20;;
15673;SDS011;7937;48.090;16.212;2023-03-14T10:22:37;1.03;;;0.20;;
15673;SDS011;7937;48.090;16.212;2023-03-14T10:25:40;0.20;;;0.20;;
15673;SDS011;7937;48.090;16.212;2023-03-14T10:28:45;1.03;;;0.37;;
15673;SDS011;7937;48.090;16.212;2023-03-14T10:38:13;0.30;;;0.23;;
15673;SDS011;7937;48.090;16.212;2023-03-14T10:41:25;0.33;;;0.30;;
15673;SDS011;7937;48.090;16.212;2023-03-14T10:44:29;0.53;;;0.40;;
15673;SDS011;7937;48.090;16.212;2023-03-14T10:47:32;0.50;;;0.50;;
15673;SDS011;7937;48.090;16.212;2023-03-14T10:50:35;0.50;;;0.43;;
15673;SDS011;7937;48.090;16.212;2023-03-14T10:53:45;0.50;;;0.50;;
15673;SDS011;7937;48.090;16.212;2023-03-14T10:56:56;0.67;;;0.40;;
15673;SDS011;7937;48.090;16.212;2023-03-14T11:00:00;0.23;;;0.23;;
15673;SDS011;7937;48.090;16.212;2023-03-14T11:03:10;0.30;;;0.30;;
15673;SDS011;7937;48.090;16.212;2023-03-14T11:06:20;0.57;;;0.37;;
15673;SDS011;7937;48.090;16.212;2023-03-14T11:13:00;0.40;;;0.40;;
15673;SDS011;7937;48.090;16.212;2023-03-14T11:16:34;0.27;;;0.23;;
15673;SDS011;7937;48.090;16.212;2023-03-14T11:27:14;0.40;;;0.23;;
15673;SDS011;7937;48.090;16.212;2023-03-14T11:30:39;0.30;;;0.30;;
15673;SDS011;7937;48.090;16.212;2023-03-14T11:33:47;0.30;;;0.30;;
15673;SDS011;7937;48.090;16.212;2023-03-14T11:40:16;0.63;;;0.23;;
15673;SDS011;7937;48.090;16.212;2023-03-14T11:43:34;0.20;;;0.20;;
15673;SDS011;7937;48.090;16.212;2023-03-14T11:46:46;0.53;;;0.40;;
15673;SDS011;7937;48.090;16.212;2023-03-14T11:50:12;0.57;;;0.20;;
15673;SDS011;7937;48.090;16.212;2023-03-14T11:57:10;0.67;;;0.40;;
15673;SDS011;7937;48.090;16.212;2023-03-14T12:06:41;0.43;;;0.37;;
15673;SDS011;7937;48.090;16.212;2023-03-14T12:09:49;0.93;;;0.30;;
15673;SDS011;7937;48.090;16.212;2023-03-14T12:12:53;0.83;;;0.20;;
15673;SDS011;7937;48.090;16.212;2023-03-14T12:15:56;0.73;;;0.30;;
15673;SDS011;7937;48.090;16.212;2023-03-14T12:22:27;1.60;;;0.30;;
15673;SDS011;7937;48.090;16.212;2023-03-14T12:25:32;0.20;;;0.20;;
15673;SDS011;7937;48.090;16.212;2023-03-14T12:28:35;0.30;;;0.30;;
15673;SDS011;7937;48.090;16.212;2023-03-14T12:38:46;0.53;;;0.30;;
15673;SDS011;7937;48.090;16.212;2023-03-14T12:42:11;1.73;;;0.50;;
15673;SDS011;7937;48.090;16.212;2023-03-14T12:45:24;1.03;;;0.30;;
15673;SDS011;7937;48.090;16.212;2023-03-14T12:48:29;1.80;;;0.47;;
15673;SDS011;7937;48.090;16.212;2023-03-14T12:58:29;0.33;;;0.20;;
15673;SDS011;7937;48.090;16.212;2023-03-14T13:01:32;0.70;;;0.43;;
15673;SDS011;7937;48.090;16.212;2023-03-14T13:04:46;0.20;;;0.20;;
15673;SDS011;7937;48.090;16.212;2023-03-14T13:08:04;0.30;;;0.10;;
15673;SDS011;7937;48.090;16.212;2023-03-14T13:11:29;0.30;;;0.30;;
15673;SDS011;7937;48.090;16.212;2023-03-14T13:14:30;0.53;;;0.30;;
15673;SDS011;7937;48.090;16.212;2023-03-14T13:17:33;0.30;;;0.30;;
15673;SDS011;7937;48.090;16.212;2023-03-14T13:20:45;0.23;;;0.20;;
15673;SDS011;7937;48.090;16.212;2023-03-14T13:23:54;0.40;;;0.20;;
15673;SDS011;7937;48.090;16.212;2023-03-14T13:27:00;0.20;;;0.20;;
15673;SDS011;7937;48.090;16.212;2023-03-14T13:33:21;0.10;;;0.10;;
15673;SDS011;7937;48.090;16.212;2023-03-14T13:36:24;0.10;;;0.10;;
15673;SDS011;7937;48.090;16.212;2023-03-14T13:39:28;0.20;;;0.20;;
15673;SDS011;7937;48.090;16.212;2023-03-14T13:42:31;0.17;;;0.17;;
15673;SDS011;7937;48.090;16.212;2023-03-14T13:45:41;0.20;;;0.20;;
15673;SDS011;7937;48.090;16.212;2023-03-14T13:48:49;0.17;;;0.17;;
15673;SDS011;7937;48.090;16.212;2023-03-14T13:55:37;0.10;;;0.10;;
15673;SDS011;7937;48.090;16.212;2023-03-14T13:58:40;0.30;;;0.20;;
15673;SDS011;7937;48.090;16.212;2023-03-14T14:01:42;0.17;;;0.17;;
15673;SDS011;7937;48.090;16.212;2023-03-14T14:04:45;0.20;;;0.20;;
15673;SDS011;7937;48.090;16.212;2023-03-14T14:07:49;0.10;;;0.10;;
15673;SDS011;7937;48.090;16.212;2023-03-14T14:10:57;0.30;;;0.20;;
15673;SDS011;7937;48.090;16.212;2023-03-14T14:14:02;0.20;;;0.17;;
15673;SDS011;7937;48.090;16.212;2023-03-14T14:17:06;0.83;;;0.20;;
15673;SDS011;7937;48.090;16.212;2023-03-14T14:20:23;0.77;;;0.20;;
15673;SDS011;7937;48.090;16.212;2023-03-14T14:23:36;0.30;;;0.20;;
15673;SDS011;7937;48.090;16.212;2023-03-14T14:26:52;0.30;;;0.13;;
15673;SDS011;7937;48.090;16.212;2023-03-14T14:30:02;0.30;;;0.20;;
15673;SDS011;7937;48.090;16.212;2023-03-14T14:33:26;0.20;;;0.20;;
15673;SDS011;7937;48.090;16.212;2023-03-14T14:36:41;0.10;;;0.10;;
15673;SDS011;7937;48.090;16.212;2023-03-14T14:39:48;0.20;;;0.20;;
15673;SDS011;7937;48.090;16.212;2023-03-14T14:42:54;0.20;;;0.20;;
15673;SDS011;7937;48.090;16.212;2023-03-14T14:46:05;0.20;;;0.20;;
15673;SDS011;7937;48.090;16.212;2023-03-14T14:49:10;0.20;;;0.20;;
15673;SDS011;7937;48.090;16.212;2023-03-14T14:52:16;0.20;;;0.20;;
15673;SDS011;7937;48.090;16.212;2023-03-14T14:55:20;0.10;;;0.10;;
15673;SDS011;7937;48.090;16.212;2023-03-14T14:58:30;0.40;;;0.20;;
15673;SDS011;7937;48.090;16.212;2023-03-14T15:01:37;0.20;;;0.20;;
15673;SDS011;7937;48.090;16.212;2023-03-14T15:04:41;0.33;;;0.23;;
15673;SDS011;7937;48.090;16.212;2023-03-14T15:07:43;0.20;;;0.20;;
15673;SDS011;7937;48.090;16.212;2023-03-14T15:10:46;0.10;;;0.10;;
15673;SDS011;7937;48.090;16.212;2023-03-14T15:13:48;0.10;;;0.10;;
15673;SDS011;7937;48.090;16.212;2023-03-14T15:16:50;0.27;;;0.27;;
15673;SDS011;7937;48.090;16.212;2023-03-14T15:19:53;0.10;;;0.10;;
15673;SDS011;7937;48.090;16.212;2023-03-14T15:22:55;0.10;;;0.10;;
15673;SDS011;7937;48.090;16.212;2023-03-14T15:25:57;0.20;;;0.20;;
15673;SDS011;7937;48.090;16.212;2023-03-14T15:28:59;0.13;;;0.13;;
15673;SDS011;7937;48.090;16.212;2023-03-14T15:32:01;0.13;;;0.13;;
15673;SDS011;7937;48.090;16.212;2023-03-14T15:35:03;0.27;;;0.20;;
15673;SDS011;7937;48.090;16.212;2023-03-14T15:38:08;0.23;;;0.20;;
15673;SDS011;7937;48.090;16.212;2023-03-14T15:41:15;0.63;;;0.20;;
15673;SDS011;7937;48.090;16.212;2023-03-14T15:44:17;0.20;;;0.20;;
15673;SDS011;7937;48.090;16.212;2023-03-14T15:47:19;0.20;;;0.20;;
15673;SDS011;7937;48.090;16.212;2023-03-14T15:50:22;0.20;;;0.20;;
15673;SDS011;7937;48.090;16.212;2023-03-14T15:53:25;1.33;;;0.20;;
15673;SDS011;7937;48.090;16.212;2023-03-14T15:56:27;0.40;;;0.30;;
15673;SDS011;7937;48.090;16.212;2023-03-14T15:59:33;0.30;;;0.30;;
15673;SDS011;7937;48.090;16.212;2023-03-14T16:02:35;0.40;;;0.30;;
15673;SDS011;7937;48.090;16.212;2023-03-14T16:05:41;0.23;;;0.23;;
15673;SDS011;7937;48.090;16.212;2023-03-14T16:08:43;0.20;;;0.20;;
15673;SDS011;7937;48.090;16.212;2023-03-14T16:11:46;0.33;;;0.20;;
15673;SDS011;7937;48.090;16.212;2023-03-14T16:14:48;0.30;;;0.30;;
15673;SDS011;7937;48.090;16.212;2023-03-14T16:17:53;0.20;;;0.20;;
15673;SDS011;7937;48.090;16.212;2023-03-14T16:20:59;0.30;;;0.20;;
15673;SDS011;7937;48.090;16.212;2023-03-14T16:24:03;0.97;;;0.40;;
15673;SDS011;7937;48.090;16.212;2023-03-14T16:27:07;0.30;;;0.20;;
15673;SDS011;7937;48.090;16.212;2023-03-14T16:30:10;0.13;;;0.13;;
15673;SDS011;7937;48.090;16.212;2023-03-14T16:33:17;0.70;;;0.27;;
15673;SDS011;7937;48.090;16.212;2023-03-14T16:36:20;0.30;;;0.30;;
15673;SDS011;7937;48.090;16.212;2023-03-14T16:39:22;0.40;;;0.20;;
15673;SDS011;7937;48.090;16.212;2023-03-14T16:42:24;0.20;;;0.20;;
15673;SDS011;7937;48.090;16.212;2023-03-14T16:45:27;1.50;;;0.20;;
15673;SDS011;7937;48.090;16.212;2023-03-14T16:48:29;0.83;;;0.20;;
15673;SDS011;7937;48.090;16.212;2023-03-14T16:51:32;0.30;;;0.30;;
15673;SDS011;7937;48.090;16.212;2023-03-14T16:54:34;0.20;;;0.20;;
15673;SDS011;7937;48.090;16.212;2023-03-14T16:57:36;0.10;;;0.10;;
15673;SDS011;7937;48.090;16.212;2023-03-14T17:00:38;0.20;;;0.20;;
15673;SDS011;7937;48.090;16.212;2023-03-14T17:03:42;1.80;;;0.47;;
15673;SDS011;7937;48.090;16.212;2023-03-14T17:06:48;0.23;;;0.23;;
15673;SDS011;7937;48.090;16.212;2023-03-14T17:09:50;0.40;;;0.30;;
15673;SDS011;7937;48.090;16.212;2023-03-14T17:12:54;0.30;;;0.30;;
15673;SDS011;7937;48.090;16.212;2023-03-14T17:15:58;0.33;;;0.33;;
15673;SDS011;7937;48.090;16.212;2023-03-14T17:19:02;0.60;;;0.50;;
15673;SDS011;7937;48.090;16.212;2023-03-14T17:22:05;1.03;;;0.33;;
15673;SDS011;7937;48.090;16.212;2023-03-14T17:25:23;0.40;;;0.40;;
15673;SDS011;7937;48.090;16.212;2023-03-14T17:28:26;1.47;;;0.40;;
15673;SDS011;7937;48.090;16.212;2023-03-14T17:31:28;0.40;;;0.40;;
15673;SDS011;7937;48.090;16.212;2023-03-14T17:34:33;0.40;;;0.30;;
15673;SDS011;7937;48.090;16.212;2023-03-14T17:37:36;0.30;;;0.30;;
15673;SDS011;7937;48.090;16.212;2023-03-14T17:40:39;0.43;;;0.30;;
15673;SDS011;7937;48.090;16.212;2023-03-14T17:43:44;0.20;;;0.20;;
15673;SDS011;7937;48.090;16.212;2023-03-14T17:46:48;0.10;;;0.10;;
15673;SDS011;7937;48.090;16.212;2023-03-14T17:49:51;0.10;;;0.10;;
15673;SDS011;7937;48.090;16.212;2023-03-14T17:52:54;0.20;;;0.20;;
15673;SDS011;7937;48.090;16.212;2023-03-14T17:55:57;0.23;;;0.20;;
15673;SDS011;7937;48.090;16.212;2023-03-14T17:58:59;0.20;;;0.20;;
15673;SDS011;7937;48.090;16.212;2023-03-14T18:02:04;0.63;;;0.20;;
15673;SDS011;7937;48.090;16.212;2023-03-14T18:05:07;0.27;;;0.20;;
15673;SDS011;7937;48.090;16.212;2023-03-14T18:08:13;0.70;;;0.20;;
15673;SDS011;7937;48.090;16.212;2023-03-14T18:11:16;0.63;;;0.30;;
15673;SDS011;7937;48.090;16.212;2023-03-14T18:14:21;0.20;;;0.20;;
15673;SDS011;7937;48.090;16.212;2023-03-14T18:17:23;0.30;;;0.30;;
15673;SDS011;7937;48.090;16.212;2023-03-14T18:20:27;0.20;;;0.20;;
15673;SDS011;7937;48.090;16.212;2023-03-14T18:23:34;0.27;;;0.27;;
15673;SDS011;7937;48.090;16.212;2023-03-14T18:26:37;0.20;;;0.20;;
15673;SDS011;7937;48.090;16.212;2023-03-14T18:29:40;0.67;;;0.20;;
15673;SDS011;7937;48.090;16.212;2023-03-14T18:32:44;0.20;;;0.20;;
15673;SDS011;7937;48.090;16.212;2023-03-14T18:35:48;0.20;;;0.20;;
15673;SDS011;7937;48.090;16.212;2023-03-14T18:38:56;1.43;;;0.20;;
15673;SDS011;7937;48.090;16.212;2023-03-14T18:42:00;0.33;;;0.20;;
15673;SDS011;7937;48.090;16.212;2023-03-14T18:45:03;0.27;;;0.27;;
15673;SDS011;7937;48.090;16.212;2023-03-14T18:48:14;0.27;;;0.20;;
15673;SDS011;7937;48.090;16.212;2023-03-14T18:51:19;0.20;;;0.20;;
15673;SDS011;7937;48.090;16.212;2023-03-14T18:54:21;0.30;;;0.20;;
15673;SDS011;7937;48.090;16.212;2023-03-14T18:57:25;0.10;;;0.10;;
15673;SDS011;7937;48.090;16.212;2023-03-14T19:00:28;0.17;;;0.17;;
15673;SDS011;7937;48.090;16.212;2023-03-14T19:03:31;0.53;;;0.30;;
15673;SDS011;7937;48.090;16.212;2023-03-14T19:06:36;0.60;;;0.20;;
15673;SDS011;7937;48.090;16.212;2023-03-14T19:09:40;0.10;;;0.10;;
15673;SDS011;7937;48.090;16.212;2023-03-14T19:12:45;2.80;;;0.20;;
15673;SDS011;7937;48.090;16.212;2023-03-14T19:15:49;0.10;;;0.10;;
15673;SDS011;7937;48.090;16.212;2023-03-14T19:18:54;0.20;;;0.20;;
15673;SDS011;7937;48.090;16.212;2023-03-14T19:21:59;0.20;;;0.20;;
15673;SDS011;7937;48.090;16.212;2023-03-14T19:25:02;0.30;;;0.30;;
15673;SDS011;7937;48.090;16.212;2023-03-14T19:28:07;0.20;;;0.20;;
15673;SDS011;7937;48.090;16.212;2023-03-14T19:31:11;0.20;;;0.20;;
15673;SDS011;7937;48.090;16.212;2023-03-14T19:34:15;0.20;;;0.20;;
15673;SDS011;7937;48.090;16.212;2023-03-14T19:37:19;0.30;;;0.30;;
15673;SDS011;7937;48.090;16.212;2023-03-14T19:40:23;0.40;;;0.30;;
15673;SDS011;7937;48.090;16.212;2023-03-14T19:43:26;0.37;;;0.30;;
15673;SDS011;7937;48.090;16.212;2023-03-14T19:46:28;0.90;;;0.30;;
15673;SDS011;7937;48.090;16.212;2023-03-14T19:49:34;0.87;;;0.40;;